Time;durP1;ratioP1;P1;durP2;ratioP2;P2;SDS_P1;SDS_P2;PMS_P1;PMS_P2;Temp;Humidity;BMP_temperature;BMP_pressure;BME280_temperature;BME280_humidity;BME280_pressure;Samples;Min_cycle;Max_cycle;Signal;HPM_P1;HPM_P2
2023/06/27 00:00:17;;;;;;;7.50;6.00;;;;;;;18.65;56.93;96251.48;111933;1245;52635;-85
2023/06/27 00:03:13;;;;;;;7.50;5.80;;;;;;;18.68;56.94;96247.73;111991;1245;24187;-85
2023/06/27 00:05:46;;;;;;;8.80;6.10;;;;;;;18.69;56.96;96243.23;111968;1245;25338;-86
2023/06/27 00:08:20;;;;;;;6.70;5.60;;;;;;;18.70;56.98;96239.03;111970;1245;22504;-85
2023/06/27 00:10:54;;;;;;;9.20;6.30;;;;;;;18.70;56.92;96237.64;111997;1245;22515;-86
2023/06/27 00:13:25;;;;;;;7.00;5.60;;;;;;;18.71;57.00;96229.61;111956;1242;22669;-85
2023/06/27 00:15:53;;;;;;;7.30;5.90;;;;;;;18.70;56.91;96222.23;112001;1245;22527;-85
2023/06/27 00:18:26;;;;;;;7.60;6.00;;;;;;;18.68;57.01;96224.88;112011;1245;23823;-85
2023/06/27 00:20:58;;;;;;;7.90;5.70;;;;;;;18.67;57.00;96222.53;112004;1245;22504;-85
2023/06/27 00:23:33;;;;;;;7.10;5.20;;;;;;;18.66;57.07;96213.47;111972;1241;22544;-85
2023/06/27 00:26:06;;;;;;;8.30;6.00;;;;;;;18.67;56.98;96203.21;111973;1245;22489;-85
2023/06/27 00:28:41;;;;;;;8.60;5.50;;;;;;;18.69;57.04;96199.34;110341;1245;2122358;-85
2023/06/27 00:31:12;;;;;;;7.50;5.20;;;;;;;18.71;57.02;96195.77;111981;1245;25242;-85
2023/06/27 00:33:45;;;;;;;8.50;5.40;;;;;;;18.72;57.05;96201.61;111983;1245;24070;-85
2023/06/27 00:36:16;;;;;;;6.30;5.20;;;;;;;18.75;56.86;96204.20;112006;1238;22504;-85
2023/06/27 00:38:45;;;;;;;8.70;5.90;;;;;;;18.76;56.94;96200.25;111949;1245;31210;-85
2023/06/27 00:41:14;;;;;;;7.20;5.30;;;;;;;18.78;56.79;96197.25;111986;1245;22523;-85
2023/06/27 00:43:43;;;;;;;6.90;5.50;;;;;;;18.81;56.82;96205.38;111971;1245;22555;-85
2023/06/27 00:46:21;;;;;;;7.40;4.80;;;;;;;18.83;56.81;96218.23;112008;1242;22485;-85
2023/06/27 00:48:52;;;;;;;7.00;5.20;;;;;;;18.84;56.81;96268.90;111928;1245;44309;-85
2023/06/27 00:51:24;;;;;;;6.30;5.10;;;;;;;18.86;56.80;96296.84;111974;1242;22554;-85
2023/06/27 00:53:53;;;;;;;6.50;5.40;;;;;;;18.96;56.73;96309.49;111980;1245;22609;-85
2023/06/27 00:56:24;;;;;;;7.00;5.60;;;;;;;19.08;56.60;96316.05;111968;1245;22518;-85
2023/06/27 00:58:57;;;;;;;9.90;5.50;;;;;;;19.18;56.49;96337.14;111893;1245;91437;-84
2023/06/27 01:01:29;;;;;;;6.50;5.50;;;;;;;19.25;56.90;96358.70;111984;1245;22564;-84
2023/06/27 01:03:59;;;;;;;10.60;5.90;;;;;;;19.23;57.48;96378.76;111958;1245;22545;-85
2023/06/27 01:06:39;;;;;;;9.50;6.20;;;;;;;19.14;58.23;96386.17;111959;1245;22537;-85
2023/06/27 01:09:15;;;;;;;11.60;6.90;;;;;;;18.94;59.19;96390.42;111898;1245;53511;-84
2023/06/27 01:11:52;;;;;;;11.90;6.70;;;;;;;18.73;60.19;96394.28;111955;1245;22544;-85
2023/06/27 01:14:31;;;;;;;8.80;6.50;;;;;;;18.57;61.24;96398.27;111945;1245;23029;-84
2023/06/27 01:17:04;;;;;;;8.00;6.40;;;;;;;18.40;62.04;96392.18;111960;1245;25135;-84
2023/06/27 01:19:36;;;;;;;10.70;7.20;;;;;;;18.26;63.07;96385.98;110343;1245;2086632;-84
2023/06/27 01:22:12;;;;;;;8.70;6.60;;;;;;;18.15;63.87;96378.70;111964;1245;22517;-85
2023/06/27 01:24:43;;;;;;;13.90;8.00;;;;;;;18.01;64.55;96371.80;111953;1245;22511;-84
2023/06/27 01:27:15;;;;;;;9.20;7.40;;;;;;;17.91;65.40;96367.08;112041;1245;22532;-85
2023/06/27 01:29:45;;;;;;;11.20;7.10;;;;;;;17.86;66.32;96357.52;111945;1245;46142;-85
2023/06/27 01:32:29;;;;;;;9.80;7.30;;;;;;;17.85;66.79;96352.45;111975;1245;22567;-85
2023/06/27 01:35:08;;;;;;;10.80;7.60;;;;;;;17.85;67.26;96361.35;111973;1245;22542;-84
2023/06/27 01:37:47;;;;;;;10.10;7.10;;;;;;;17.85;67.81;96376.81;111946;1245;24199;-84
2023/06/27 01:40:22;;;;;;;8.70;7.00;;;;;;;17.75;67.89;96384.71;111893;1245;113795;-85
2023/06/27 01:43:01;;;;;;;9.10;6.90;;;;;;;17.64;68.22;96382.82;111968;1245;22611;-84
2023/06/27 01:45:35;;;;;;;8.80;7.20;;;;;;;17.54;68.61;96386.88;111945;1245;22510;-84
2023/06/27 01:48:10;;;;;;;11.00;7.40;;;;;;;17.42;68.85;96394.72;112028;1245;24244;-84
2023/06/27 01:50:39;;;;;;;9.30;7.10;;;;;;;17.33;69.08;96396.23;111886;1245;94969;-84
2023/06/27 01:53:08;;;;;;;11.20;8.00;;;;;;;17.24;69.63;96403.55;111930;1241;22562;-84
2023/06/27 01:55:41;;;;;;;9.60;6.90;;;;;;;17.20;70.01;96411.75;111947;1245;22511;-84
2023/06/27 01:58:09;;;;;;;10.10;7.60;;;;;;;17.17;70.52;96394.12;111962;1245;22493;-84
2023/06/27 02:00:44;;;;;;;10.70;7.70;;;;;;;17.15;70.92;96398.08;111913;1241;59291;-83
2023/06/27 02:03:15;;;;;;;12.10;7.80;;;;;;;17.13;71.41;96385.30;111779;1245;23314;-84
2023/06/27 02:05:43;;;;;;;11.40;8.00;;;;;;;17.14;71.90;96384.17;111968;1245;22493;-84
2023/06/27 02:08:13;;;;;;;10.30;7.80;;;;;;;17.16;72.32;96389.60;111938;1245;24055;-84
2023/06/27 02:10:41;;;;;;;10.60;7.50;;;;;;;17.14;72.60;96380.35;111901;1245;63607;-84
2023/06/27 02:13:10;;;;;;;9.80;7.50;;;;;;;17.16;72.86;96383.27;111972;1245;25399;-84
2023/06/27 02:15:40;;;;;;;10.10;7.40;;;;;;;17.15;73.04;96381.45;111959;1245;22570;-84
2023/06/27 02:18:12;;;;;;;9.30;7.30;;;;;;;17.13;73.40;96374.29;111985;1242;22530;-84
2023/06/27 02:20:43;;;;;;;9.20;7.70;;;;;;;17.10;73.66;96364.47;111909;1241;91505;-84
2023/06/27 02:23:13;;;;;;;10.80;7.40;;;;;;;17.08;73.79;96363.39;111979;1245;22499;-84
2023/06/27 02:25:49;;;;;;;9.40;7.50;;;;;;;17.03;74.07;96366.20;111971;1245;22509;-84
2023/06/27 02:28:22;;;;;;;8.80;7.50;;;;;;;16.97;74.17;96363.48;111935;1245;22564;-83
2023/06/27 02:30:55;;;;;;;9.10;7.70;;;;;;;16.91;74.60;96363.83;111936;1245;43504;-84
2023/06/27 02:33:24;;;;;;;10.20;7.40;;;;;;;16.88;74.86;96368.95;111964;1245;22548;-84
2023/06/27 02:35:53;;;;;;;9.50;7.70;;;;;;;16.85;75.13;96379.02;111959;1245;22518;-84
2023/06/27 02:38:21;;;;;;;9.40;7.70;;;;;;;16.83;75.49;96388.67;111988;1245;22538;-84
2023/06/27 02:40:55;;;;;;;8.20;7.30;;;;;;;16.82;75.74;96390.98;111919;1241;51618;-84
2023/06/27 02:43:24;;;;;;;10.00;7.20;;;;;;;16.79;76.13;96374.90;111973;1241;22504;-84
2023/06/27 02:45:57;;;;;;;9.20;7.20;;;;;;;16.78;76.26;96370.10;111934;1245;22529;-83
2023/06/27 02:48:27;;;;;;;9.10;7.90;;;;;;;16.73;76.46;96365.10;111958;1245;22517;-83
2023/06/27 02:50:56;;;;;;;10.10;7.50;;;;;;;16.70;76.85;96362.81;111774;1246;22471;-83
2023/06/27 02:53:31;;;;;;;10.00;7.60;;;;;;;16.68;77.24;96353.89;111826;1246;22531;-84
2023/06/27 02:56:07;;;;;;;9.50;7.70;;;;;;;16.67;77.51;96337.86;111798;1246;22517;-84
2023/06/27 02:58:39;;;;;;;11.80;8.00;;;;;;;16.66;77.91;96338.77;110240;1245;2027997;-84
2023/06/27 03:01:10;;;;;;;10.30;7.80;;;;;;;16.67;78.31;96342.30;111978;1242;24318;-83
2023/06/27 03:03:38;;;;;;;10.20;8.40;;;;;;;16.71;78.67;96336.70;111977;1245;23244;-83
2023/06/27 03:06:08;;;;;;;6.40;5.20;;;;;;;16.73;78.53;96328.98;111932;1245;22614;-83
2023/06/27 03:08:41;;;;;;;8.80;7.00;;;;;;;16.63;78.47;96318.25;111928;1243;55816;-84
2023/06/27 03:11:11;;;;;;;9.90;7.90;;;;;;;16.54;78.64;96315.93;111952;1245;22571;-83
2023/06/27 03:13:42;;;;;;;9.00;7.60;;;;;;;16.49;79.00;96314.73;111821;1245;22522;-84
2023/06/27 03:16:22;;;;;;;9.50;7.80;;;;;;;16.47;79.14;96309.83;111950;1242;22515;-84
2023/06/27 03:18:50;;;;;;;9.60;7.50;;;;;;;16.42;79.66;96301.85;111885;1243;29134;-84
2023/06/27 03:21:20;;;;;;;11.20;8.10;;;;;;;16.40;79.96;96297.02;111964;1241;22460;-84
2023/06/27 03:23:54;;;;;;;10.10;7.90;;;;;;;16.38;80.28;96286.71;111973;1245;22512;-85
2023/06/27 03:26:27;;;;;;;9.70;7.60;;;;;;;16.37;80.42;96283.48;111975;1245;22504;-84
2023/06/27 03:28:56;;;;;;;9.50;7.90;;;;;;;16.36;80.62;96288.09;111942;1245;39924;-84
2023/06/27 03:31:29;;;;;;;14.00;8.70;;;;;;;16.36;80.97;96291.39;111977;1245;22614;-84
2023/06/27 03:34:04;;;;;;;9.90;8.10;;;;;;;16.37;81.20;96301.89;111950;1245;22534;-84
2023/06/27 03:36:33;;;;;;;10.10;7.90;;;;;;;16.41;81.49;96313.64;111950;1245;22623;-84
2023/06/27 03:39:03;;;;;;;9.50;7.60;;;;;;;16.44;81.53;96317.59;111908;1245;50343;-84
2023/06/27 03:41:33;;;;;;;9.40;8.10;;;;;;;16.45;81.81;96315.43;111984;1245;22509;-84
2023/06/27 03:44:12;;;;;;;9.10;7.20;;;;;;;16.49;81.98;96322.39;111959;1243;22506;-84
2023/06/27 03:46:43;;;;;;;9.30;6.90;;;;;;;16.51;82.07;96321.88;111953;1245;22560;-84
2023/06/27 03:49:17;;;;;;;9.60;7.70;;;;;;;16.54;82.34;96315.39;111861;1245;104422;-84
2023/06/27 03:51:49;;;;;;;8.70;7.40;;;;;;;16.57;82.40;96306.56;111796;1245;22514;-84
2023/06/27 03:54:17;;;;;;;8.80;7.30;;;;;;;16.59;82.55;96314.28;111936;1245;22673;-84
2023/06/27 03:56:47;;;;;;;8.10;7.10;;;;;;;16.60;82.66;96311.86;111778;1245;22489;-84
2023/06/27 03:59:15;;;;;;;;;;;;;;;16.59;82.78;96311.77;111919;1242;59376;-84
2023/06/27 04:01:45;;;;;;;7.90;6.70;;;;;;;16.58;83.03;96310.17;111940;1245;22528;-84
2023/06/27 04:04:20;;;;;;;8.90;7.10;;;;;;;16.56;83.01;96299.04;111956;1245;24224;-84
2023/06/27 04:06:54;;;;;;;9.00;7.50;;;;;;;16.55;83.26;96299.59;111961;1240;22509;-84
2023/06/27 04:09:27;;;;;;;9.10;7.20;;;;;;;16.53;83.31;96295.70;111882;1245;92008;-84
2023/06/27 04:11:58;;;;;;;9.70;7.90;;;;;;;16.53;83.53;96296.92;111939;1245;22608;-84
2023/06/27 04:14:31;;;;;;;14.10;7.80;;;;;;;16.54;83.81;96296.29;111956;1245;24258;-84
2023/06/27 04:17:02;;;;;;;9.10;7.10;;;;;;;16.56;83.88;96295.80;111936;1241;25382;-84
2023/06/27 04:19:33;;;;;;;8.40;6.80;;;;;;;16.57;84.05;96290.59;111928;1245;59362;-84
2023/06/27 04:22:02;;;;;;;9.70;7.20;;;;;;;16.58;84.23;96287.25;111943;1245;23354;-84
2023/06/27 04:24:36;;;;;;;9.40;7.20;;;;;;;16.59;84.18;96290.42;111943;1245;22613;-84
2023/06/27 04:27:09;;;;;;;10.20;7.10;;;;;;;16.61;84.66;96289.77;111963;1245;22518;-84
2023/06/27 04:29:38;;;;;;;9.30;7.80;;;;;;;16.69;85.17;96289.20;111907;1243;90826;-84
2023/06/27 04:32:15;;;;;;;8.20;7.10;;;;;;;16.76;85.40;96292.02;111966;1245;22501;-84
2023/06/27 04:34:44;;;;;;;8.20;7.00;;;;;;;16.84;85.37;96294.52;111953;1242;22545;-84
2023/06/27 04:37:18;;;;;;;7.60;6.80;;;;;;;16.90;85.38;96291.69;111950;1245;23160;-84
2023/06/27 04:39:56;;;;;;;8.10;6.80;;;;;;;16.96;85.53;96298.27;111871;1245;107083;-83
2023/06/27 04:42:25;;;;;;;8.50;7.60;;;;;;;17.06;85.78;96292.54;111947;1245;25279;-84
2023/06/27 04:44:56;;;;;;;10.10;7.60;;;;;;;17.16;86.04;96293.71;111966;1245;22482;-84
2023/06/27 04:47:25;;;;;;;8.20;6.90;;;;;;;17.23;85.95;96300.71;111965;1245;22510;-84
2023/06/27 04:49:57;;;;;;;8.80;7.70;;;;;;;17.28;85.77;96306.38;111893;1245;68680;-84
2023/06/27 04:52:26;;;;;;;9.90;7.20;;;;;;;17.28;85.52;96304.08;111963;1245;22509;-84
2023/06/27 04:55:00;;;;;;;8.20;6.80;;;;;;;17.29;85.51;96297.60;111939;1245;22497;-84
2023/06/27 04:57:29;;;;;;;8.10;6.50;;;;;;;17.30;85.28;96295.67;111965;1245;23475;-83
2023/06/27 04:59:58;;;;;;;8.00;6.60;;;;;;;17.32;85.46;96295.38;111912;1245;56807;-83
2023/06/27 05:02:30;;;;;;;7.50;6.50;;;;;;;17.38;85.73;96290.84;111967;1245;22515;-84
2023/06/27 05:04:59;;;;;;;7.90;6.20;;;;;;;17.44;85.67;96295.05;111960;1243;22522;-84
2023/06/27 05:07:31;;;;;;;8.20;6.50;;;;;;;17.49;85.63;96294.85;111962;1245;22557;-83
2023/06/27 05:10:03;;;;;;;7.70;6.80;;;;;;;17.51;85.38;96292.30;111749;1245;48728;-83
2023/06/27 05:12:31;;;;;;;7.10;6.30;;;;;;;17.55;85.66;96291.49;111959;1245;22513;-83
2023/06/27 05:15:01;;;;;;;8.00;6.80;;;;;;;17.59;85.60;96292.63;111961;1245;22638;-84
2023/06/27 05:17:28;;;;;;;;;;;;;;;17.63;85.47;96289.16;111970;1245;22478;-83
2023/06/27 05:19:57;;;;;;;7.40;6.00;;;;;;;17.69;85.80;96282.90;111916;1243;56399;-83
2023/06/27 05:22:26;;;;;;;9.60;6.90;;;;;;;17.81;85.55;96279.40;111967;1243;22451;-83
2023/06/27 05:24:57;;;;;;;7.70;6.30;;;;;;;17.90;85.61;96275.69;111955;1245;22556;-83
2023/06/27 05:27:26;;;;;;;7.10;5.60;;;;;;;18.04;85.59;96273.56;111950;1237;22527;-83
2023/06/27 05:29:55;;;;;;;10.00;6.40;;;;;;;18.10;84.96;96276.14;111942;1245;32693;-83
2023/06/27 05:32:26;;;;;;;8.90;6.50;;;;;;;18.09;84.72;96273.63;111966;1245;22525;-83
2023/06/27 05:34:58;;;;;;;8.70;6.40;;;;;;;18.12;85.13;96273.80;111946;1243;22497;-83
2023/06/27 05:37:28;;;;;;;7.70;6.60;;;;;;;18.21;85.28;96278.56;111964;1245;22521;-83
2023/06/27 05:39:57;;;;;;;7.60;6.20;;;;;;;18.25;84.85;96276.14;111901;1245;71257;-83
2023/06/27 05:42:26;;;;;;;8.60;6.30;;;;;;;18.31;84.69;96278.13;111944;1245;22523;-83
2023/06/27 05:44:55;;;;;;;6.20;5.60;;;;;;;18.26;84.32;96285.69;111984;1245;22645;-83
2023/06/27 05:47:24;;;;;;;7.50;6.10;;;;;;;18.19;84.30;96292.98;111951;1246;22481;-83
2023/06/27 05:49:52;;;;;;;7.20;6.10;;;;;;;18.15;84.64;96291.21;111795;1242;63489;-83
2023/06/27 05:52:24;;;;;;;6.90;6.10;;;;;;;18.16;84.99;96293.27;111814;1230;22511;-83
2023/06/27 05:54:53;;;;;;;7.30;5.40;;;;;;;18.24;85.44;96300.02;111865;1245;22509;-83
2023/06/27 05:57:22;;;;;;;5.70;5.00;;;;;;;18.29;84.83;96299.45;111826;1245;25314;-83
2023/06/27 05:59:51;;;;;;;7.70;5.70;;;;;;;18.22;84.65;96302.95;111787;1246;40272;-84
2023/06/27 06:02:20;;;;;;;7.90;5.90;;;;;;;18.16;84.96;96302.30;111858;1244;23520;-83
2023/06/27 06:04:50;;;;;;;7.40;5.60;;;;;;;18.13;85.24;96303.90;111827;1246;24247;-84
2023/06/27 06:07:20;;;;;;;6.70;5.50;;;;;;;18.12;85.30;96302.63;111822;1245;22616;-83
2023/06/27 06:09:48;;;;;;;6.80;6.00;;;;;;;18.09;85.46;96308.13;111789;1245;41041;-83
2023/06/27 06:12:17;;;;;;;6.80;5.80;;;;;;;18.06;85.66;96308.42;111831;1246;22499;-83
2023/06/27 06:14:46;;;;;;;7.30;5.80;;;;;;;18.04;85.59;96313.48;111834;1246;22537;-83
2023/06/27 06:17:15;;;;;;;6.10;4.90;;;;;;;17.99;85.74;96318.83;111829;1245;24002;-83
2023/06/27 06:19:43;;;;;;;5.90;5.30;;;;;;;17.97;85.92;96321.91;111777;1246;68992;-83
2023/06/27 06:22:12;;;;;;;5.50;4.60;;;;;;;17.97;86.10;96320.29;111809;1246;25472;-83
2023/06/27 06:24:41;;;;;;;6.20;4.90;;;;;;;17.93;85.95;96324.61;111873;1245;22576;-83
2023/06/27 06:27:10;;;;;;;;;;;;;;;17.89;86.07;96328.34;111843;1246;22472;-83
2023/06/27 06:29:39;;;;;;;5.30;4.70;;;;;;;17.87;86.24;96331.44;111839;1246;62332;-83
2023/06/27 06:32:09;;;;;;;5.90;4.90;;;;;;;17.83;86.16;96331.69;111867;1246;22469;-83
2023/06/27 06:34:37;;;;;;;7.80;6.00;;;;;;;17.80;86.32;96333.77;111851;1246;22517;-83
2023/06/27 06:37:07;;;;;;;7.40;5.40;;;;;;;17.79;86.34;96336.50;111820;1242;22954;-83
2023/06/27 06:39:36;;;;;;;6.40;5.70;;;;;;;17.79;86.52;96343.77;111746;1246;102971;-83
2023/06/27 06:42:06;;;;;;;8.20;7.00;;;;;;;17.78;86.50;96339.77;111846;1243;23590;-83
2023/06/27 06:44:38;;;;;;;9.60;6.60;;;;;;;17.77;86.47;96338.71;111859;1246;22837;-83
2023/06/27 06:47:08;;;;;;;9.00;7.60;;;;;;;17.76;86.59;96343.28;111853;1246;23269;-83
2023/06/27 06:49:37;;;;;;;8.10;7.10;;;;;;;17.74;86.49;96338.26;111772;1245;99522;-83
2023/06/27 06:52:06;;;;;;;9.90;7.80;;;;;;;17.72;86.33;96334.02;111853;1245;22546;-83
2023/06/27 06:54:35;;;;;;;10.50;7.90;;;;;;;17.69;86.48;96348.09;111839;1245;22588;-83
2023/06/27 06:57:04;;;;;;;;;;;;;;;17.68;86.76;96347.88;111905;1245;22512;-83
2023/06/27 06:59:35;;;;;;;8.90;8.00;;;;;;;17.66;86.69;96344.30;111811;1246;43686;-83
2023/06/27 07:02:08;;;;;;;10.00;7.90;;;;;;;17.63;86.68;96355.36;111833;1243;22526;-83
2023/06/27 07:04:40;;;;;;;10.50;9.40;;;;;;;17.58;86.54;96356.15;111842;1242;22489;-84
2023/06/27 07:07:09;;;;;;;10.40;8.30;;;;;;;17.47;86.78;96386.27;111825;1246;22503;-83
2023/06/27 07:09:39;;;;;;;8.40;7.50;;;;;;;17.42;86.74;96390.34;111796;1246;66366;-83
2023/06/27 07:12:09;;;;;;;8.70;7.60;;;;;;;17.42;86.79;96394.63;111840;1246;22513;-83
2023/06/27 07:14:41;;;;;;;8.40;7.40;;;;;;;17.45;86.60;96392.55;111866;1246;22540;-83
2023/06/27 07:17:12;;;;;;;8.40;7.40;;;;;;;17.52;86.50;96391.09;111818;1246;22500;-83
2023/06/27 07:19:48;;;;;;;8.20;7.10;;;;;;;17.57;86.22;96382.33;110195;1246;1988719;-83
2023/06/27 07:22:17;;;;;;;10.70;7.50;;;;;;;17.67;86.30;96389.20;111842;1246;22520;-83
2023/06/27 07:24:46;;;;;;;10.50;6.90;;;;;;;17.76;85.87;96391.31;111839;1246;22539;-83
2023/06/27 07:27:16;;;;;;;7.80;6.00;;;;;;;17.85;85.46;96388.85;111835;1246;23018;-83
2023/06/27 07:29:46;;;;;;;7.10;6.00;;;;;;;17.95;85.41;96396.10;111786;1244;56526;-83
2023/06/27 07:32:19;;;;;;;7.80;5.70;;;;;;;17.98;84.55;96396.13;111805;1246;22495;-83
2023/06/27 07:34:48;;;;;;;8.30;5.60;;;;;;;17.91;83.97;96393.75;111856;1231;22535;-84
2023/06/27 07:37:17;;;;;;;8.00;5.50;;;;;;;17.83;83.40;96396.29;111856;1246;24194;-83
2023/06/27 07:39:46;;;;;;;6.90;5.20;;;;;;;17.81;83.35;96405.58;111798;1246;44317;-83
2023/06/27 07:42:19;;;;;;;6.80;5.40;;;;;;;17.83;83.10;96409.69;111848;1246;24368;-82
2023/06/27 07:44:48;;;;;;;8.70;5.10;;;;;;;17.85;82.96;96409.46;111869;1243;22538;-82
2023/06/27 07:47:18;;;;;;;12.40;5.50;;;;;;;17.90;82.66;96404.61;111855;1245;22504;-83
2023/06/27 07:49:47;;;;;;;6.80;5.30;;;;;;;17.98;82.72;96406.86;111800;1246;48625;-83
2023/06/27 07:52:30;;;;;;;7.20;5.00;;;;;;;18.24;82.86;96408.59;111844;1245;22986;-83
2023/06/27 07:55:00;;;;;;;6.90;5.10;;;;;;;18.47;82.05;96404.99;111862;1246;22554;-83
2023/06/27 07:57:34;;;;;;;8.00;5.20;;;;;;;18.63;81.27;96403.36;111754;1246;22541;-83
2023/06/27 08:00:11;;;;;;;6.10;4.70;;;;;;;18.81;80.56;96414.23;111777;1245;70962;-82
2023/06/27 08:02:45;;;;;;;8.50;4.80;;;;;;;18.93;80.17;96416.02;111890;1246;25227;-84
2023/06/27 08:05:13;;;;;;;8.60;5.20;;;;;;;18.91;79.06;96423.40;111820;1245;22490;-83
2023/06/27 08:07:45;;;;;;;7.90;4.20;;;;;;;18.82;78.36;96429.79;111823;1246;23210;-84
2023/06/27 08:10:20;;;;;;;9.10;4.80;;;;;;;18.69;77.97;96430.88;111806;1246;72987;-84
2023/06/27 08:12:52;;;;;;;6.60;4.90;;;;;;;18.53;77.81;96437.09;111829;1245;25406;-84
2023/06/27 08:15:24;;;;;;;7.10;5.00;;;;;;;18.55;78.01;96428.05;111845;1246;22515;-83
2023/06/27 08:17:53;;;;;;;7.80;4.70;;;;;;;18.70;78.22;96434.39;111846;1246;22526;-84
2023/06/27 08:20:22;;;;;;;7.80;4.80;;;;;;;18.97;78.07;96438.63;111543;1246;156854;-84
2023/06/27 08:22:51;;;;;;;6.20;4.50;;;;;;;19.02;77.07;96429.17;111849;1244;24214;-84
2023/06/27 08:25:20;;;;;;;6.60;4.70;;;;;;;18.99;76.85;96430.63;111842;1245;22599;-83
2023/06/27 08:27:58;;;;;;;7.40;4.50;;;;;;;18.97;76.25;96442.21;111716;1246;25100;-84
2023/06/27 08:30:31;;;;;;;7.30;4.50;;;;;;;18.88;76.07;96436.44;111736;1245;100483;-83
2023/06/27 08:33:04;;;;;;;8.00;4.30;;;;;;;18.87;76.76;96438.70;111853;1244;22492;-84
2023/06/27 08:35:44;;;;;;;5.40;4.30;;;;;;;18.92;76.75;96445.67;111846;1246;22497;-83
2023/06/27 08:38:13;;;;;;;8.90;4.90;;;;;;;18.86;76.10;96441.66;111868;1246;22490;-84
2023/06/27 08:40:46;;;;;;;7.30;4.70;;;;;;;18.77;75.92;96440.07;111801;1246;42785;-84
2023/06/27 08:43:17;;;;;;;8.40;5.20;;;;;;;18.69;75.99;96444.62;111859;1246;22539;-84
2023/06/27 08:45:49;;;;;;;6.80;4.70;;;;;;;18.70;76.30;96437.91;111852;1245;22515;-84
2023/06/27 08:48:20;;;;;;;10.10;5.80;;;;;;;18.73;76.40;96440.16;111832;1245;24443;-83
2023/06/27 08:50:57;;;;;;;8.70;6.10;;;;;;;18.87;76.53;96442.16;111853;1246;43435;-83
2023/06/27 08:53:28;;;;;;;8.70;5.60;;;;;;;18.94;76.33;96440.84;111870;1245;22505;-84
2023/06/27 08:56:12;;;;;;;7.70;4.80;;;;;;;19.04;76.48;96437.67;111857;1246;22537;-83
2023/06/27 08:58:46;;;;;;;8.50;5.10;;;;;;;19.25;76.25;96437.87;111830;1246;56241;-83
2023/06/27 09:01:17;;;;;;;7.30;5.50;;;;;;;19.47;76.09;96434.06;111875;1245;22511;-83
2023/06/27 09:03:46;;;;;;;7.00;4.90;;;;;;;19.60;76.18;96429.98;111862;1246;22527;-83
2023/06/27 09:06:18;;;;;;;8.40;4.90;;;;;;;19.77;75.94;96434.26;111828;1245;22618;-84
2023/06/27 09:08:49;;;;;;;6.90;5.70;;;;;;;19.89;75.34;96427.79;107810;1246;5165940;-84
2023/06/27 09:11:18;;;;;;;7.90;5.30;;;;;;;19.81;74.34;96429.92;111776;1246;22535;-84
2023/06/27 09:13:53;;;;;;;6.80;5.50;;;;;;;19.71;74.01;96431.35;111861;1246;22495;-84
2023/06/27 09:16:23;;;;;;;6.70;5.00;;;;;;;19.60;73.56;96430.95;111868;1246;22493;-84
2023/06/27 09:18:54;;;;;;;7.80;5.20;;;;;;;19.46;73.41;96438.95;111817;1245;53499;-84
2023/06/27 09:21:26;;;;;;;11.80;5.70;;;;;;;19.29;73.20;96446.44;111856;1246;22513;-83
2023/06/27 09:23:55;;;;;;;8.20;5.70;;;;;;;19.13;73.43;96449.48;111879;1246;22503;-83
2023/06/27 09:26:28;;;;;;;7.50;5.50;;;;;;;18.97;73.33;96448.53;111873;1245;22533;-83
2023/06/27 09:29:00;;;;;;;8.20;6.40;;;;;;;18.86;73.63;96454.40;111827;1243;59868;-84
2023/06/27 09:31:33;;;;;;;8.70;5.50;;;;;;;18.80;74.12;96452.52;111888;1246;23142;-84
2023/06/27 09:34:09;;;;;;;10.10;6.10;;;;;;;18.78;74.14;96453.14;111748;1245;22584;-83
2023/06/27 09:36:43;;;;;;;8.50;6.20;;;;;;;18.74;74.27;96466.05;111842;1245;22510;-83
2023/06/27 09:39:14;;;;;;;7.70;6.60;;;;;;;18.72;74.43;96470.27;111802;1246;63778;-83
2023/06/27 09:41:47;;;;;;;9.90;6.00;;;;;;;18.67;74.32;96465.67;111851;1243;23252;-83
2023/06/27 09:44:18;;;;;;;12.00;6.30;;;;;;;18.64;74.61;96460.37;111874;1238;23129;-83
2023/06/27 09:46:53;;;;;;;7.60;6.10;;;;;;;18.61;74.78;96460.92;111867;1246;22557;-84
2023/06/27 09:49:24;;;;;;;8.60;6.30;;;;;;;18.57;74.93;96461.60;111853;1244;35940;-84
2023/06/27 09:51:56;;;;;;;10.20;6.40;;;;;;;18.53;75.47;96466.09;111851;1246;22521;-84
2023/06/27 09:54:26;;;;;;;9.10;6.90;;;;;;;18.47;75.48;96477.09;111868;1246;22605;-84
2023/06/27 09:56:56;;;;;;;10.00;7.40;;;;;;;18.34;75.92;96484.23;111877;1244;22522;-84
2023/06/27 09:59:28;;;;;;;10.00;7.00;;;;;;;18.18;76.16;96481.69;111784;1246;114630;-84
2023/06/27 10:02:00;;;;;;;7.50;6.20;;;;;;;18.04;76.70;96481.27;111889;1245;22522;-84
2023/06/27 10:04:32;;;;;;;7.00;5.90;;;;;;;17.88;76.83;96484.83;111866;1246;22509;-84
2023/06/27 10:07:01;;;;;;;7.90;5.50;;;;;;;17.78;77.44;96484.69;111884;1246;23815;-83
2023/06/27 10:09:37;;;;;;;9.00;6.40;;;;;;;17.76;78.00;96489.06;111805;1245;59657;-83
2023/06/27 10:12:12;;;;;;;8.20;6.20;;;;;;;17.74;78.31;96488.62;111889;1246;22540;-84
2023/06/27 10:14:43;;;;;;;8.60;6.10;;;;;;;17.74;78.95;96496.89;111863;1246;22484;-84
2023/06/27 10:17:18;;;;;;;9.00;6.10;;;;;;;17.78;78.99;96495.13;111858;1245;22551;-83
2023/06/27 10:19:49;;;;;;;7.00;6.30;;;;;;;17.78;78.97;96494.36;111842;1246;71584;-83
2023/06/27 10:22:21;;;;;;;9.40;7.10;;;;;;;17.82;79.20;96491.88;111878;1246;22649;-83
2023/06/27 10:24:59;;;;;;;8.70;6.70;;;;;;;17.90;79.73;96492.80;111888;1246;22504;-83
2023/06/27 10:27:34;;;;;;;9.60;7.20;;;;;;;18.03;79.96;96489.02;111894;1246;22557;-83
2023/06/27 10:30:23;;;;;;;8.50;7.20;;;;;;;18.12;79.70;96491.73;111802;1246;74792;-83
2023/06/27 10:33:07;;;;;;;8.10;7.00;;;;;;;18.17;79.57;96482.25;111878;1246;22516;-83
2023/06/27 10:35:50;;;;;;;8.00;6.70;;;;;;;18.17;79.40;96478.91;111879;1246;22609;-83
2023/06/27 10:38:33;;;;;;;8.00;7.20;;;;;;;18.18;79.41;96476.02;111879;1245;22646;-83
2023/06/27 10:41:33;;;;;;;8.80;7.90;;;;;;;18.13;79.29;96476.27;111847;1245;67748;-83
2023/06/27 10:44:21;;;;;;;8.90;7.00;;;;;;;18.07;79.13;96482.59;111584;1245;22490;-83
2023/06/27 10:47:34;;;;;;;9.90;6.70;;;;;;;17.99;79.29;96490.95;111870;1246;23258;-83
2023/06/27 10:50:10;;;;;;;8.80;7.50;;;;;;;17.93;79.11;96492.81;111775;1231;126290;-84
2023/06/27 10:53:03;;;;;;;9.70;7.60;;;;;;;17.86;79.22;96492.63;111915;1245;22570;-84
2023/06/27 10:55:37;;;;;;;8.30;6.50;;;;;;;17.89;79.65;96490.59;111894;1246;22499;-84
2023/06/27 10:58:13;;;;;;;8.80;7.20;;;;;;;17.98;79.80;96490.70;111910;1245;22561;-84
2023/06/27 11:00:51;;;;;;;11.00;7.20;;;;;;;18.04;79.84;96486.17;111819;1245;73968;-84
2023/06/27 11:03:22;;;;;;;7.50;6.40;;;;;;;18.15;80.02;96484.85;111925;1245;22519;-84
2023/06/27 11:06:00;;;;;;;10.70;6.40;;;;;;;18.19;79.84;96483.65;111892;1244;22513;-83
2023/06/27 11:08:32;;;;;;;7.60;6.50;;;;;;;18.22;79.34;96479.45;111894;1245;25380;-84
2023/06/27 11:11:09;;;;;;;11.30;6.80;;;;;;;18.23;79.24;96481.10;111856;1243;51050;-83
2023/06/27 11:13:45;;;;;;;9.70;6.50;;;;;;;18.25;79.14;96475.79;111881;1246;22544;-83
2023/06/27 11:16:26;;;;;;;7.40;5.60;;;;;;;18.24;78.54;96477.66;111904;1246;23005;-84
2023/06/27 11:18:59;;;;;;;7.60;6.10;;;;;;;18.26;78.49;96473.69;110476;1244;1808695;-83
2023/06/27 11:21:33;;;;;;;6.10;5.50;;;;;;;18.29;78.63;96471.71;111931;1244;22594;-83
2023/06/27 11:24:06;;;;;;;6.40;5.80;;;;;;;18.35;78.72;96470.10;111903;1245;22505;-83
2023/06/27 11:26:49;;;;;;;6.30;5.30;;;;;;;18.35;78.26;96473.99;111927;1245;22740;-84
2023/06/27 11:29:20;;;;;;;9.00;5.80;;;;;;;18.34;78.10;96469.77;111829;1246;89837;-84
2023/06/27 11:31:56;;;;;;;6.80;5.80;;;;;;;18.33;77.85;96469.96;111885;1245;22595;-83
2023/06/27 11:34:30;;;;;;;7.90;5.90;;;;;;;18.32;77.68;96462.54;111910;1246;22982;-84
2023/06/27 11:37:03;;;;;;;7.70;5.80;;;;;;;18.27;77.31;96460.16;111887;1246;22499;-83
2023/06/27 11:39:37;;;;;;;7.70;5.70;;;;;;;18.23;77.03;96455.19;111849;1230;33509;-84
2023/06/27 11:42:12;;;;;;;8.40;5.70;;;;;;;18.18;76.80;96450.73;111927;1243;22522;-84
2023/06/27 11:44:44;;;;;;;7.00;5.30;;;;;;;18.19;76.91;96456.98;111945;1246;22514;-83
2023/06/27 11:47:26;;;;;;;8.40;5.40;;;;;;;18.23;76.88;96455.19;111910;1246;22523;-84